<?xml version="1.0" encoding="UTF-8" standalone="no" ?>
<gpx xmlns="http://www.topografix.com/GPX/1/1" xmlns:xsi="http://www.w3.org/2001/XMLSchema-instance" xsi:schemaLocation="http://www.topografix.com/GPX/1/1 http://www.topografix.com/GPX/1/1/gpx.xsd" version="1.1" creator="VisuGPX - https://www.visugpx.com">
  <metadata>
    <name>Monbalen 8.9 km</name>
  </metadata>
  <trk>
    <name><![CDATA[Monbalen 8.9 km]]></name>
    <extensions>
      <line xmlns="http://www.topografix.com/GPX/gpx_style/0/2">
        <color>0000FF</color>
        <width>4</width>
      </line>
    </extensions>
    <trkseg>
      <trkpt lat="44.31256" lon="0.73884">
        <ele>202</ele>
        <time>2024-11-04T16:33:52.000Z</time>
      </trkpt>
      <trkpt lat="44.31267" lon="0.73907">
        <ele>202</ele>
        <time>2024-11-04T16:34:15.000Z</time>
      </trkpt>
      <trkpt lat="44.31289" lon="0.73908">
        <ele>201.3</ele>
        <time>2024-11-04T16:34:40.000Z</time>
      </trkpt>
      <trkpt lat="44.3136" lon="0.73803">
        <ele>198.1</ele>
      </trkpt>
      <trkpt lat="44.31376" lon="0.73797">
        <ele>197.6</ele>
        <time>2024-11-04T16:35:59.000Z</time>
      </trkpt>
      <trkpt lat="44.31425" lon="0.73811">
        <ele>194.3</ele>
        <time>2024-11-04T16:38:25.000Z</time>
      </trkpt>
      <trkpt lat="44.31484" lon="0.73826">
        <ele>191</ele>
        <time>2024-11-04T16:40:13.000Z</time>
      </trkpt>
      <trkpt lat="44.31515" lon="0.7374">
        <ele>189</ele>
        <time>2024-11-04T16:41:32.000Z</time>
      </trkpt>
      <trkpt lat="44.31534" lon="0.73726">
        <ele>189</ele>
        <time>2024-11-04T16:41:43.000Z</time>
      </trkpt>
      <trkpt lat="44.31585" lon="0.73734">
        <ele>187</ele>
        <time>2024-11-04T16:42:42.000Z</time>
      </trkpt>
      <trkpt lat="44.31627" lon="0.73784">
        <ele>188</ele>
        <time>2024-11-04T16:43:59.000Z</time>
      </trkpt>
      <trkpt lat="44.31702" lon="0.73978">
        <ele>191</ele>
        <time>2024-11-04T16:47:29.000Z</time>
      </trkpt>
      <trkpt lat="44.31727" lon="0.74195">
        <ele>198</ele>
        <time>2024-11-04T16:50:58.000Z</time>
      </trkpt>
      <trkpt lat="44.31737" lon="0.74199">
        <ele>198.3</ele>
      </trkpt>
      <trkpt lat="44.31775" lon="0.74173">
        <ele>200</ele>
        <time>2024-11-04T16:52:16.000Z</time>
      </trkpt>
      <trkpt lat="44.31847" lon="0.74023">
        <ele>203</ele>
        <time>2024-11-04T16:54:21.000Z</time>
      </trkpt>
      <trkpt lat="44.31981" lon="0.73908">
        <ele>204.9</ele>
        <time>2024-11-04T16:57:57.000Z</time>
      </trkpt>
      <trkpt lat="44.32051" lon="0.73974">
        <ele>205.7</ele>
      </trkpt>
      <trkpt lat="44.32098" lon="0.74057">
        <ele>206</ele>
        <time>2024-11-04T17:01:31.000Z</time>
      </trkpt>
      <trkpt lat="44.32152" lon="0.74124">
        <ele>204.5</ele>
      </trkpt>
      <trkpt lat="44.32264" lon="0.74225">
        <ele>207.3</ele>
        <time>2024-11-04T17:06:26.000Z</time>
      </trkpt>
      <trkpt lat="44.32284" lon="0.74228">
        <ele>207.4</ele>
      </trkpt>
      <trkpt lat="44.32355" lon="0.74177">
        <ele>206.7</ele>
      </trkpt>
      <trkpt lat="44.32396" lon="0.74137">
        <ele>205.6</ele>
      </trkpt>
      <trkpt lat="44.32428" lon="0.74123">
        <ele>204.3</ele>
        <time>2024-11-04T17:10:16.000Z</time>
      </trkpt>
      <trkpt lat="44.32559" lon="0.74156">
        <ele>201.9</ele>
        <time>2024-11-04T17:13:08.000Z</time>
      </trkpt>
      <trkpt lat="44.32586" lon="0.74144">
        <ele>198.9</ele>
        <time>2024-11-04T17:13:46.000Z</time>
      </trkpt>
      <trkpt lat="44.32641" lon="0.74165">
        <ele>190</ele>
      </trkpt>
      <trkpt lat="44.32696" lon="0.74201">
        <ele>182</ele>
        <time>2024-11-04T17:16:30.000Z</time>
      </trkpt>
      <trkpt lat="44.32736" lon="0.74241">
        <ele>181.7</ele>
      </trkpt>
      <trkpt lat="44.32759" lon="0.74307">
        <ele>175.9</ele>
        <time>2024-11-04T17:19:23.000Z</time>
      </trkpt>
      <trkpt lat="44.32839" lon="0.74278">
        <ele>146</ele>
        <time>2024-11-04T17:20:52.000Z</time>
      </trkpt>
      <trkpt lat="44.32819" lon="0.74164">
        <ele>153.3</ele>
        <time>2024-11-04T17:23:42.000Z</time>
      </trkpt>
      <trkpt lat="44.32802" lon="0.74094">
        <ele>147</ele>
      </trkpt>
      <trkpt lat="44.32773" lon="0.74015">
        <ele>139</ele>
        <time>2024-11-04T17:25:53.000Z</time>
      </trkpt>
      <trkpt lat="44.32826" lon="0.73948">
        <ele>133</ele>
        <time>2024-11-04T17:27:15.000Z</time>
      </trkpt>
      <trkpt lat="44.3278" lon="0.73831">
        <ele>129.7</ele>
        <time>2024-11-04T17:29:09.000Z</time>
      </trkpt>
      <trkpt lat="44.32757" lon="0.73773">
        <ele>129</ele>
        <time>2024-11-04T17:21:15.000Z</time>
      </trkpt>
      <trkpt lat="44.32705" lon="0.73736">
        <ele>131.5</ele>
      </trkpt>
      <trkpt lat="44.32629" lon="0.73707">
        <ele>134.2</ele>
        <time>2024-11-04T17:23:02.000Z</time>
      </trkpt>
      <trkpt lat="44.32606" lon="0.73724">
        <ele>138.5</ele>
        <time>2024-11-04T17:24:02.000Z</time>
      </trkpt>
      <trkpt lat="44.32529" lon="0.73701">
        <ele>143</ele>
        <time>2024-11-04T17:25:37.000Z</time>
      </trkpt>
      <trkpt lat="44.32508" lon="0.73662">
        <ele>141.2</ele>
        <time>2024-11-04T17:26:49.000Z</time>
      </trkpt>
      <trkpt lat="44.32496" lon="0.73633">
        <ele>138.8</ele>
        <time>2024-11-04T17:27:11.000Z</time>
      </trkpt>
      <trkpt lat="44.32498" lon="0.73616">
        <ele>137.5</ele>
        <time>2024-11-04T17:27:43.000Z</time>
      </trkpt>
      <trkpt lat="44.32483" lon="0.73604">
        <ele>137</ele>
        <time>2024-11-04T17:28:14.000Z</time>
      </trkpt>
      <trkpt lat="44.32469" lon="0.73609">
        <ele>138.3</ele>
        <time>2024-11-04T17:27:54.000Z</time>
      </trkpt>
      <trkpt lat="44.32465" lon="0.73582">
        <ele>137.9</ele>
      </trkpt>
      <trkpt lat="44.32475" lon="0.73512">
        <ele>143</ele>
        <time>2024-11-04T17:30:03.000Z</time>
      </trkpt>
      <trkpt lat="44.32492" lon="0.73445">
        <ele>154.1</ele>
      </trkpt>
      <trkpt lat="44.32514" lon="0.73416">
        <ele>164.2</ele>
      </trkpt>
      <trkpt lat="44.32513" lon="0.73397">
        <ele>168.7</ele>
        <time>2024-11-04T17:36:03.000Z</time>
      </trkpt>
      <trkpt lat="44.32504" lon="0.73373">
        <ele>173.3</ele>
      </trkpt>
      <trkpt lat="44.3251" lon="0.73348">
        <ele>185</ele>
        <time>2024-11-04T17:39:38.000Z</time>
      </trkpt>
      <trkpt lat="44.32526" lon="0.73334">
        <ele>189.6</ele>
      </trkpt>
      <trkpt lat="44.32534" lon="0.73337">
        <ele>191</ele>
        <time>2024-11-04T17:41:08.000Z</time>
      </trkpt>
      <trkpt lat="44.32562" lon="0.73354">
        <ele>193</ele>
        <time>2024-11-04T17:33:04.000Z</time>
      </trkpt>
      <trkpt lat="44.326" lon="0.73401">
        <ele>190.7</ele>
      </trkpt>
      <trkpt lat="44.3262" lon="0.7341">
        <ele>194</ele>
        <time>2024-11-04T17:35:53.000Z</time>
      </trkpt>
      <trkpt lat="44.32605" lon="0.73386">
        <ele>195</ele>
      </trkpt>
      <trkpt lat="44.32594" lon="0.73351">
        <ele>199</ele>
        <time>2024-11-04T17:36:52.000Z</time>
      </trkpt>
      <trkpt lat="44.32603" lon="0.73312">
        <ele>204</ele>
        <time>2024-11-04T17:38:17.000Z</time>
      </trkpt>
      <trkpt lat="44.32691" lon="0.73154">
        <ele>207</ele>
        <time>2024-11-04T17:40:30.000Z</time>
      </trkpt>
      <trkpt lat="44.32674" lon="0.73046">
        <ele>206</ele>
        <time>2024-11-04T17:42:15.000Z</time>
      </trkpt>
      <trkpt lat="44.32655" lon="0.72953">
        <ele>203</ele>
        <time>2024-11-04T17:43:34.000Z</time>
      </trkpt>
      <trkpt lat="44.32619" lon="0.72876">
        <ele>206</ele>
        <time>2024-11-04T17:45:14.000Z</time>
      </trkpt>
      <trkpt lat="44.32586" lon="0.72811">
        <ele>204</ele>
        <time>2024-11-04T17:46:30.000Z</time>
      </trkpt>
      <trkpt lat="44.32497" lon="0.72764">
        <ele>209</ele>
        <time>2024-11-04T17:48:37.000Z</time>
      </trkpt>
      <trkpt lat="44.32448" lon="0.72723">
        <ele>210</ele>
        <time>2024-11-04T17:49:53.000Z</time>
      </trkpt>
      <trkpt lat="44.32402" lon="0.72655">
        <ele>211</ele>
        <time>2024-11-04T17:51:20.000Z</time>
      </trkpt>
      <trkpt lat="44.32379" lon="0.72587">
        <ele>209</ele>
        <time>2024-11-04T17:52:32.000Z</time>
      </trkpt>
      <trkpt lat="44.32311" lon="0.72455">
        <ele>209</ele>
        <time>2024-11-04T17:55:14.000Z</time>
      </trkpt>
      <trkpt lat="44.32269" lon="0.72283">
        <ele>212</ele>
        <time>2024-11-04T17:58:01.000Z</time>
      </trkpt>
      <trkpt lat="44.32264" lon="0.72275">
        <ele>211.9</ele>
        <time>2024-11-04T17:58:14.000Z</time>
      </trkpt>
      <trkpt lat="44.32225" lon="0.72102">
        <ele>206.7</ele>
      </trkpt>
      <trkpt lat="44.32202" lon="0.71915">
        <ele>199</ele>
        <time>2024-11-04T18:04:09.000Z</time>
      </trkpt>
      <trkpt lat="44.32146" lon="0.71928">
        <ele>195.3</ele>
        <time>2024-11-04T18:05:13.000Z</time>
      </trkpt>
      <trkpt lat="44.32089" lon="0.71919">
        <ele>195</ele>
        <time>2024-11-04T18:06:31.000Z</time>
      </trkpt>
      <trkpt lat="44.31993" lon="0.7181">
        <ele>198.5</ele>
        <time>2024-11-04T18:09:42.000Z</time>
      </trkpt>
      <trkpt lat="44.31864" lon="0.71737">
        <ele>208</ele>
        <time>2024-11-04T18:13:44.000Z</time>
      </trkpt>
      <trkpt lat="44.31768" lon="0.71666">
        <ele>201</ele>
      </trkpt>
      <trkpt lat="44.3168" lon="0.71618">
        <ele>203</ele>
        <time>2024-11-04T18:17:36.000Z</time>
      </trkpt>
      <trkpt lat="44.31574" lon="0.71565">
        <ele>201</ele>
        <time>2024-11-04T18:19:45.000Z</time>
      </trkpt>
      <trkpt lat="44.31545" lon="0.71567">
        <ele>199</ele>
      </trkpt>
      <trkpt lat="44.31517" lon="0.71588">
        <ele>198.6</ele>
        <time>2024-11-04T18:20:53.000Z</time>
      </trkpt>
      <trkpt lat="44.31502" lon="0.71613">
        <ele>198.1</ele>
      </trkpt>
      <trkpt lat="44.31476" lon="0.71707">
        <ele>199.2</ele>
      </trkpt>
      <trkpt lat="44.31414" lon="0.71834">
        <ele>201</ele>
      </trkpt>
      <trkpt lat="44.31392" lon="0.71933">
        <ele>204</ele>
        <time>2024-11-04T18:29:53.000Z</time>
      </trkpt>
      <trkpt lat="44.31413" lon="0.71999">
        <ele>206.7</ele>
      </trkpt>
      <trkpt lat="44.31441" lon="0.72057">
        <ele>210</ele>
        <time>2024-11-04T18:32:51.000Z</time>
      </trkpt>
      <trkpt lat="44.31461" lon="0.7216">
        <ele>214.1</ele>
        <time>2024-11-04T18:33:49.000Z</time>
      </trkpt>
      <trkpt lat="44.31489" lon="0.72201">
        <ele>212.4</ele>
        <time>2024-11-04T18:34:49.000Z</time>
      </trkpt>
      <trkpt lat="44.3148" lon="0.72257">
        <ele>213.6</ele>
        <time>2024-11-04T18:35:47.000Z</time>
      </trkpt>
      <trkpt lat="44.31475" lon="0.72272">
        <ele>213</ele>
        <time>2024-11-04T18:36:09.000Z</time>
      </trkpt>
      <trkpt lat="44.31493" lon="0.72361">
        <ele>212.5</ele>
      </trkpt>
      <trkpt lat="44.31491" lon="0.7238">
        <ele>213</ele>
        <time>2024-11-04T18:37:50.000Z</time>
      </trkpt>
      <trkpt lat="44.31434" lon="0.72554">
        <ele>210</ele>
        <time>2024-11-04T18:40:26.000Z</time>
      </trkpt>
      <trkpt lat="44.31376" lon="0.72672">
        <ele>210</ele>
        <time>2024-11-04T18:43:09.000Z</time>
      </trkpt>
      <trkpt lat="44.31335" lon="0.72621">
        <ele>209</ele>
        <time>2024-11-04T18:44:12.000Z</time>
      </trkpt>
      <trkpt lat="44.31246" lon="0.72597">
        <ele>203.1</ele>
        <time>2024-11-04T18:45:42.000Z</time>
      </trkpt>
      <trkpt lat="44.31052" lon="0.72649">
        <ele>204</ele>
        <time>2024-11-04T18:49:41.000Z</time>
      </trkpt>
      <trkpt lat="44.30936" lon="0.72659">
        <ele>198.6</ele>
      </trkpt>
      <trkpt lat="44.30853" lon="0.72657">
        <ele>188.6</ele>
        <time>2024-11-04T18:53:29.000Z</time>
      </trkpt>
      <trkpt lat="44.30821" lon="0.72685">
        <ele>188.5</ele>
      </trkpt>
      <trkpt lat="44.30783" lon="0.72683">
        <ele>187.7</ele>
        <time>2024-11-04T18:54:35.000Z</time>
      </trkpt>
      <trkpt lat="44.30772" lon="0.72701">
        <ele>187.9</ele>
      </trkpt>
      <trkpt lat="44.3069" lon="0.72786">
        <ele>187</ele>
        <time>2024-11-04T18:57:06.000Z</time>
      </trkpt>
      <trkpt lat="44.30657" lon="0.72867">
        <ele>191</ele>
        <time>2024-11-04T18:59:03.000Z</time>
      </trkpt>
      <trkpt lat="44.30695" lon="0.73023">
        <ele>199.8</ele>
      </trkpt>
      <trkpt lat="44.30724" lon="0.73103">
        <ele>203</ele>
        <time>2024-11-04T19:04:34.000Z</time>
      </trkpt>
      <trkpt lat="44.30812" lon="0.73183">
        <ele>205.3</ele>
        <time>2024-11-04T19:07:08.000Z</time>
      </trkpt>
      <trkpt lat="44.30865" lon="0.73303">
        <ele>202</ele>
        <time>2024-11-04T19:08:59.000Z</time>
      </trkpt>
      <trkpt lat="44.30862" lon="0.73406">
        <ele>199</ele>
        <time>2024-11-04T19:10:23.000Z</time>
      </trkpt>
      <trkpt lat="44.30891" lon="0.73531">
        <ele>198</ele>
        <time>2024-11-04T19:12:11.000Z</time>
      </trkpt>
      <trkpt lat="44.309" lon="0.73643">
        <ele>197</ele>
        <time>2024-11-04T19:13:44.000Z</time>
      </trkpt>
      <trkpt lat="44.30956" lon="0.73708">
        <ele>199</ele>
        <time>2024-11-04T19:17:00.000Z</time>
      </trkpt>
      <trkpt lat="44.31075" lon="0.73814">
        <ele>207</ele>
        <time>2024-11-04T19:21:03.000Z</time>
      </trkpt>
      <trkpt lat="44.31237" lon="0.73914">
        <ele>201</ele>
        <time>2024-11-04T19:24:26.000Z</time>
      </trkpt>
      <trkpt lat="44.31255" lon="0.73887">
        <ele>202</ele>
        <time>2024-11-04T19:23:46.000Z</time>
        <extensions>
          <visugpx:TrkExtension xmlns:visugpx="https://www.visugpx.com/editgpx/">
            <visugpx:node>1</visugpx:node>
            </visugpx:TrkExtension>
        </extensions>
      </trkpt>
    </trkseg>
  </trk>
</gpx>